sensor_id;sensor_type;location;lat;lon;timestamp;pressure;altitude;pressure_sealevel;temperature;humidity
21588;BME280;10956;48.878;13.316;2022-09-09T00:00:32;94082.81;;;13.53;100.00
21588;BME280;10956;48.878;13.316;2022-09-09T00:03:24;94072.78;;;13.50;100.00
21588;BME280;10956;48.878;13.316;2022-09-09T00:06:17;94073.28;;;13.52;100.00
21588;BME280;10956;48.878;13.316;2022-09-09T00:09:10;94078.09;;;13.50;100.00
21588;BME280;10956;48.878;13.316;2022-09-09T00:14:45;94069.34;;;13.31;100.00
21588;BME280;10956;48.878;13.316;2022-09-09T00:17:22;94065.69;;;13.27;100.00
21588;BME280;10956;48.878;13.316;2022-09-09T00:19:55;94076.34;;;13.21;100.00
21588;BME280;10956;48.878;13.316;2022-09-09T00:22:25;94082.75;;;13.15;100.00
21588;BME280;10956;48.878;13.316;2022-09-09T00:24:54;94075.44;;;13.07;100.00
21588;BME280;10956;48.878;13.316;2022-09-09T00:30:19;94074.88;;;13.10;100.00
21588;BME280;10956;48.878;13.316;2022-09-09T00:32:48;94071.91;;;13.17;100.00
21588;BME280;10956;48.878;13.316;2022-09-09T00:35:34;94062.63;;;13.19;100.00
21588;BME280;10956;48.878;13.316;2022-09-09T00:38:24;94062.06;;;13.22;100.00
21588;BME280;10956;48.878;13.316;2022-09-09T00:40:53;94060.91;;;13.29;100.00
21588;BME280;10956;48.878;13.316;2022-09-09T00:43:28;94060.47;;;13.21;100.00
21588;BME280;10956;48.878;13.316;2022-09-09T00:49:00;94058.00;;;13.06;100.00
21588;BME280;10956;48.878;13.316;2022-09-09T00:57:25;94057.63;;;12.94;100.00
21588;BME280;10956;48.878;13.316;2022-09-09T01:00:23;94065.22;;;13.01;100.00
21588;BME280;10956;48.878;13.316;2022-09-09T01:05:46;94069.53;;;13.15;100.00
21588;BME280;10956;48.878;13.316;2022-09-09T01:08:33;94069.53;;;13.15;100.00
21588;BME280;10956;48.878;13.316;2022-09-09T01:11:01;94071.63;;;13.18;100.00
21588;BME280;10956;48.878;13.316;2022-09-09T01:13:32;94075.88;;;13.14;100.00
21588;BME280;10956;48.878;13.316;2022-09-09T01:16:04;94068.00;;;13.09;100.00
21588;BME280;10956;48.878;13.316;2022-09-09T01:18:37;94069.16;;;13.03;100.00
21588;BME280;10956;48.878;13.316;2022-09-09T01:21:22;94069.72;;;13.00;100.00
21588;BME280;10956;48.878;13.316;2022-09-09T01:24:05;94060.72;;;13.01;100.00
21588;BME280;10956;48.878;13.316;2022-09-09T01:26:43;94067.56;;;13.02;100.00
21588;BME280;10956;48.878;13.316;2022-09-09T01:29:12;94063.97;;;12.93;100.00
21588;BME280;10956;48.878;13.316;2022-09-09T01:34:20;94073.09;;;12.82;100.00
21588;BME280;10956;48.878;13.316;2022-09-09T01:36:52;94077.03;;;12.84;100.00
21588;BME280;10956;48.878;13.316;2022-09-09T01:39:21;94078.31;;;12.87;100.00
21588;BME280;10956;48.878;13.316;2022-09-09T01:41:46;94076.19;;;12.89;100.00
21588;BME280;10956;48.878;13.316;2022-09-09T01:44:12;94075.63;;;12.92;100.00
21588;BME280;10956;48.878;13.316;2022-09-09T01:46:38;94071.13;;;12.92;100.00
21588;BME280;10956;48.878;13.316;2022-09-09T01:49:06;94068.25;;;12.89;100.00
21588;BME280;10956;48.878;13.316;2022-09-09T01:51:33;94071.53;;;12.81;100.00
21588;BME280;10956;48.878;13.316;2022-09-09T01:53:59;94066.00;;;12.77;100.00
21588;BME280;10956;48.878;13.316;2022-09-09T02:01:57;94072.31;;;12.57;100.00
21588;BME280;10956;48.878;13.316;2022-09-09T02:04:42;94068.69;;;12.48;100.00
21588;BME280;10956;48.878;13.316;2022-09-09T02:07:30;94077.69;;;12.47;100.00
21588;BME280;10956;48.878;13.316;2022-09-09T02:10:16;94079.22;;;12.53;100.00
21588;BME280;10956;48.878;13.316;2022-09-09T02:12:47;94087.06;;;12.64;100.00
21588;BME280;10956;48.878;13.316;2022-09-09T02:15:20;94084.34;;;12.69;100.00
21588;BME280;10956;48.878;13.316;2022-09-09T02:17:49;94084.00;;;12.75;100.00
21588;BME280;10956;48.878;13.316;2022-09-09T02:20:18;94076.88;;;12.76;100.00
21588;BME280;10956;48.878;13.316;2022-09-09T02:22:45;94080.19;;;12.63;100.00
21588;BME280;10956;48.878;13.316;2022-09-09T02:25:16;94081.31;;;12.56;100.00
21588;BME280;10956;48.878;13.316;2022-09-09T02:27:45;94076.59;;;12.53;100.00
21588;BME280;10956;48.878;13.316;2022-09-09T02:30:12;94072.47;;;12.42;100.00
21588;BME280;10956;48.878;13.316;2022-09-09T02:32:39;94078.88;;;12.36;100.00
21588;BME280;10956;48.878;13.316;2022-09-09T02:35:11;94070.16;;;12.36;100.00
21588;BME280;10956;48.878;13.316;2022-09-09T02:37:40;94076.78;;;12.33;100.00
21588;BME280;10956;48.878;13.316;2022-09-09T02:40:09;94071.03;;;12.26;100.00
21588;BME280;10956;48.878;13.316;2022-09-09T02:42:43;94080.53;;;12.27;100.00
21588;BME280;10956;48.878;13.316;2022-09-09T02:45:11;94088.47;;;12.27;100.00
21588;BME280;10956;48.878;13.316;2022-09-09T02:47:44;94087.34;;;12.33;100.00
21588;BME280;10956;48.878;13.316;2022-09-09T02:50:25;94087.03;;;12.40;100.00
21588;BME280;10956;48.878;13.316;2022-09-09T02:53:09;94083.78;;;12.48;100.00
21588;BME280;10956;48.878;13.316;2022-09-09T02:55:41;94094.56;;;12.51;100.00
21588;BME280;10956;48.878;13.316;2022-09-09T02:58:13;94091.44;;;12.49;100.00
21588;BME280;10956;48.878;13.316;2022-09-09T03:00:43;94094.06;;;12.49;100.00
21588;BME280;10956;48.878;13.316;2022-09-09T03:03:10;94094.28;;;12.53;100.00
21588;BME280;10956;48.878;13.316;2022-09-09T03:05:36;94088.16;;;12.57;100.00
21588;BME280;10956;48.878;13.316;2022-09-09T03:08:03;94089.19;;;12.61;100.00
21588;BME280;10956;48.878;13.316;2022-09-09T03:10:28;94091.88;;;12.56;100.00
21588;BME280;10956;48.878;13.316;2022-09-09T03:12:54;94091.44;;;12.49;100.00
21588;BME280;10956;48.878;13.316;2022-09-09T03:15:20;94098.34;;;12.45;100.00
21588;BME280;10956;48.878;13.316;2022-09-09T03:17:46;94087.25;;;12.43;100.00
21588;BME280;10956;48.878;13.316;2022-09-09T03:20:12;94088.38;;;12.37;100.00
21588;BME280;10956;48.878;13.316;2022-09-09T03:22:38;94085.78;;;12.32;100.00
21588;BME280;10956;48.878;13.316;2022-09-09T03:25:04;94078.44;;;12.24;100.00
21588;BME280;10956;48.878;13.316;2022-09-09T03:27:31;94079.47;;;12.28;100.00
21588;BME280;10956;48.878;13.316;2022-09-09T03:29:56;94074.19;;;12.28;100.00
21588;BME280;10956;48.878;13.316;2022-09-09T03:32:22;94059.34;;;12.32;100.00
21588;BME280;10956;48.878;13.316;2022-09-09T03:34:51;94064.03;;;12.40;100.00
21588;BME280;10956;48.878;13.316;2022-09-09T03:37:17;94066.13;;;12.43;100.00
21588;BME280;10956;48.878;13.316;2022-09-09T03:39:43;94069.53;;;12.44;100.00
21588;BME280;10956;48.878;13.316;2022-09-09T03:42:08;94065.31;;;12.43;100.00
21588;BME280;10956;48.878;13.316;2022-09-09T03:44:34;94064.53;;;12.42;100.00
21588;BME280;10956;48.878;13.316;2022-09-09T03:46:59;94056.59;;;12.42;100.00
21588;BME280;10956;48.878;13.316;2022-09-09T03:49:27;94063.19;;;12.45;100.00
21588;BME280;10956;48.878;13.316;2022-09-09T03:51:56;94063.94;;;12.50;100.00
21588;BME280;10956;48.878;13.316;2022-09-09T03:54:23;94059.16;;;12.52;100.00
21588;BME280;10956;48.878;13.316;2022-09-09T03:56:49;94055.53;;;12.43;100.00
21588;BME280;10956;48.878;13.316;2022-09-09T03:59:14;94061.94;;;12.37;100.00
21588;BME280;10956;48.878;13.316;2022-09-09T04:01:39;94064.41;;;12.28;100.00
21588;BME280;10956;48.878;13.316;2022-09-09T04:04:05;94056.75;;;12.27;100.00
21588;BME280;10956;48.878;13.316;2022-09-09T04:06:30;94056.75;;;12.27;100.00
21588;BME280;10956;48.878;13.316;2022-09-09T04:08:56;94055.19;;;12.26;100.00
21588;BME280;10956;48.878;13.316;2022-09-09T04:11:21;94046.19;;;12.27;100.00
21588;BME280;10956;48.878;13.316;2022-09-09T04:13:47;94049.44;;;12.19;100.00
21588;BME280;10956;48.878;13.316;2022-09-09T04:16:13;94042.59;;;12.18;100.00
21588;BME280;10956;48.878;13.316;2022-09-09T04:18:38;94048.31;;;12.25;100.00
21588;BME280;10956;48.878;13.316;2022-09-09T04:21:04;94049.81;;;12.36;100.00
21588;BME280;10956;48.878;13.316;2022-09-09T04:23:32;94038.09;;;12.42;100.00
21588;BME280;10956;48.878;13.316;2022-09-09T04:25:59;94035.69;;;12.46;100.00
21588;BME280;10956;48.878;13.316;2022-09-09T04:28:26;94033.84;;;12.46;100.00
21588;BME280;10956;48.878;13.316;2022-09-09T04:30:52;94037.09;;;12.38;100.00
21588;BME280;10956;48.878;13.316;2022-09-09T04:33:18;94038.16;;;12.37;100.00
21588;BME280;10956;48.878;13.316;2022-09-09T04:35:46;94046.88;;;12.38;100.00
21588;BME280;10956;48.878;13.316;2022-09-09T04:38:12;94049.00;;;12.36;100.00
21588;BME280;10956;48.878;13.316;2022-09-09T04:40:37;94055.81;;;12.42;100.00
21588;BME280;10956;48.878;13.316;2022-09-09T04:43:08;94047.28;;;12.50;100.00
21588;BME280;10956;48.878;13.316;2022-09-09T04:45:34;94051.16;;;12.57;100.00
21588;BME280;10956;48.878;13.316;2022-09-09T04:47:59;94034.97;;;12.64;100.00
21588;BME280;10956;48.878;13.316;2022-09-09T04:50:25;94035.19;;;12.68;100.00
21588;BME280;10956;48.878;13.316;2022-09-09T04:52:50;94037.78;;;12.73;100.00
21588;BME280;10956;48.878;13.316;2022-09-09T04:55:16;94035.13;;;12.73;100.00
21588;BME280;10956;48.878;13.316;2022-09-09T04:57:41;94034.56;;;12.76;100.00
21588;BME280;10956;48.878;13.316;2022-09-09T05:00:07;94038.22;;;12.80;100.00
21588;BME280;10956;48.878;13.316;2022-09-09T05:02:37;94030.22;;;12.85;100.00
21588;BME280;10956;48.878;13.316;2022-09-09T05:05:03;94043.38;;;12.90;100.00
21588;BME280;10956;48.878;13.316;2022-09-09T05:07:28;94035.97;;;12.92;100.00
21588;BME280;10956;48.878;13.316;2022-09-09T05:09:54;94044.63;;;12.98;100.00
21588;BME280;10956;48.878;13.316;2022-09-09T05:12:19;94039.53;;;13.01;100.00
21588;BME280;10956;48.878;13.316;2022-09-09T05:14:44;94043.75;;;13.02;100.00
21588;BME280;10956;48.878;13.316;2022-09-09T05:17:10;94044.56;;;13.03;100.00
21588;BME280;10956;48.878;13.316;2022-09-09T05:19:36;94038.53;;;12.97;100.00
21588;BME280;10956;48.878;13.316;2022-09-09T05:22:02;94044.97;;;12.91;100.00
21588;BME280;10956;48.878;13.316;2022-09-09T05:24:28;94048.75;;;12.85;100.00
21588;BME280;10956;48.878;13.316;2022-09-09T05:26:54;94056.16;;;12.83;100.00
21588;BME280;10956;48.878;13.316;2022-09-09T05:29:19;94060.38;;;12.84;100.00
21588;BME280;10956;48.878;13.316;2022-09-09T05:31:45;94053.97;;;12.90;100.00
21588;BME280;10956;48.878;13.316;2022-09-09T05:34:12;94065.00;;;12.97;100.00
21588;BME280;10956;48.878;13.316;2022-09-09T05:36:37;94069.72;;;13.00;100.00
21588;BME280;10956;48.878;13.316;2022-09-09T05:39:03;94058.00;;;13.06;100.00
21588;BME280;10956;48.878;13.316;2022-09-09T05:41:29;94053.94;;;13.14;100.00
21588;BME280;10956;48.878;13.316;2022-09-09T05:43:55;94052.03;;;13.19;100.00
21588;BME280;10956;48.878;13.316;2022-09-09T05:46:23;94044.59;;;13.21;100.00
21588;BME280;10956;48.878;13.316;2022-09-09T05:48:49;94058.19;;;13.34;100.00
21588;BME280;10956;48.878;13.316;2022-09-09T05:51:21;94069.06;;;13.51;100.00
21588;BME280;10956;48.878;13.316;2022-09-09T05:53:47;94065.72;;;13.64;100.00
21588;BME280;10956;48.878;13.316;2022-09-09T05:56:15;94067.34;;;13.79;100.00
21588;BME280;10956;48.878;13.316;2022-09-09T05:58:41;94066.91;;;13.90;100.00
21588;BME280;10956;48.878;13.316;2022-09-09T06:01:17;94061.44;;;14.01;100.00
21588;BME280;10956;48.878;13.316;2022-09-09T06:03:44;94070.72;;;14.17;100.00
21588;BME280;10956;48.878;13.316;2022-09-09T06:06:13;94071.09;;;14.43;100.00
21588;BME280;10956;48.878;13.316;2022-09-09T06:08:41;94073.28;;;14.82;100.00
21588;BME280;10956;48.878;13.316;2022-09-09T06:11:15;94069.63;;;15.19;100.00
21588;BME280;10956;48.878;13.316;2022-09-09T06:13:41;94068.81;;;15.46;100.00
21588;BME280;10956;48.878;13.316;2022-09-09T06:16:12;94068.38;;;15.66;100.00
21588;BME280;10956;48.878;13.316;2022-09-09T06:18:39;94048.47;;;15.77;100.00
21588;BME280;10956;48.878;13.316;2022-09-09T06:21:06;94054.16;;;15.85;100.00
21588;BME280;10956;48.878;13.316;2022-09-09T06:23:34;94049.44;;;15.81;100.00
21588;BME280;10956;48.878;13.316;2022-09-09T06:26:05;94043.53;;;15.85;100.00
21588;BME280;10956;48.878;13.316;2022-09-09T06:28:34;94049.22;;;15.92;100.00
21588;BME280;10956;48.878;13.316;2022-09-09T06:31:01;94042.63;;;15.89;100.00
21588;BME280;10956;48.878;13.316;2022-09-09T06:33:31;94048.59;;;15.95;100.00
21588;BME280;10956;48.878;13.316;2022-09-09T06:35:57;94050.78;;;15.93;100.00
21588;BME280;10956;48.878;13.316;2022-09-09T06:38:23;94045.47;;;15.93;100.00
21588;BME280;10956;48.878;13.316;2022-09-09T06:40:56;94045.22;;;15.80;100.00
21588;BME280;10956;48.878;13.316;2022-09-09T06:43:24;94054.88;;;15.76;100.00
21588;BME280;10956;48.878;13.316;2022-09-09T06:45:56;94051.63;;;15.79;100.00
21588;BME280;10956;48.878;13.316;2022-09-09T06:48:22;94055.25;;;15.83;100.00
21588;BME280;10956;48.878;13.316;2022-09-09T06:50:47;94063.94;;;15.98;100.00
21588;BME280;10956;48.878;13.316;2022-09-09T06:53:17;94057.47;;;16.12;100.00
21588;BME280;10956;48.878;13.316;2022-09-09T06:55:45;94056.00;;;16.29;100.00
21588;BME280;10956;48.878;13.316;2022-09-09T06:58:10;94075.50;;;16.46;100.00
21588;BME280;10956;48.878;13.316;2022-09-09T07:00:36;94083.72;;;16.59;100.00
21588;BME280;10956;48.878;13.316;2022-09-09T07:03:04;94085.75;;;16.62;100.00
21588;BME280;10956;48.878;13.316;2022-09-09T07:05:29;94081.53;;;16.61;100.00
21588;BME280;10956;48.878;13.316;2022-09-09T07:07:54;94080.41;;;16.53;100.00
21588;BME280;10956;48.878;13.316;2022-09-09T07:10:20;94081.34;;;16.57;100.00
21588;BME280;10956;48.878;13.316;2022-09-09T07:12:51;94090.72;;;16.77;100.00
21588;BME280;10956;48.878;13.316;2022-09-09T07:15:17;94089.22;;;16.93;100.00
21588;BME280;10956;48.878;13.316;2022-09-09T07:17:44;94099.44;;;17.08;100.00
21588;BME280;10956;48.878;13.316;2022-09-09T07:20:10;94105.72;;;17.13;100.00
21588;BME280;10956;48.878;13.316;2022-09-09T07:22:35;94110.00;;;16.83;100.00
21588;BME280;10956;48.878;13.316;2022-09-09T07:25:01;94101.97;;;16.74;100.00
21588;BME280;10956;48.878;13.316;2022-09-09T07:27:27;94092.41;;;16.73;100.00
21588;BME280;10956;48.878;13.316;2022-09-09T07:29:53;94098.84;;;16.72;100.00
21588;BME280;10956;48.878;13.316;2022-09-09T07:32:19;94102.59;;;16.71;100.00
21588;BME280;10956;48.878;13.316;2022-09-09T07:34:45;94107.63;;;16.81;100.00
21588;BME280;10956;48.878;13.316;2022-09-09T07:37:13;94103.63;;;16.92;100.00
21588;BME280;10956;48.878;13.316;2022-09-09T07:39:39;94103.22;;;17.07;100.00
21588;BME280;10956;48.878;13.316;2022-09-09T07:42:05;94099.66;;;17.21;100.00
21588;BME280;10956;48.878;13.316;2022-09-09T07:44:30;94098.75;;;17.34;100.00
21588;BME280;10956;48.878;13.316;2022-09-09T07:47:00;94094.22;;;17.43;100.00
21588;BME280;10956;48.878;13.316;2022-09-09T07:49:25;94100.81;;;17.46;100.00
21588;BME280;10956;48.878;13.316;2022-09-09T07:51:50;94104.56;;;17.44;100.00
21588;BME280;10956;48.878;13.316;2022-09-09T07:54:18;94105.97;;;17.42;100.00
21588;BME280;10956;48.878;13.316;2022-09-09T07:56:49;94100.03;;;17.45;100.00
21588;BME280;10956;48.878;13.316;2022-09-09T07:59:15;94113.81;;;17.47;100.00
21588;BME280;10956;48.878;13.316;2022-09-09T08:01:46;94109.91;;;17.53;100.00
21588;BME280;10956;48.878;13.316;2022-09-09T08:04:15;94112.44;;;17.58;100.00
21588;BME280;10956;48.878;13.316;2022-09-09T08:06:53;94111.69;;;17.66;100.00
21588;BME280;10956;48.878;13.316;2022-09-09T08:09:20;94107.47;;;17.74;100.00
21588;BME280;10956;48.878;13.316;2022-09-09T08:11:46;94116.09;;;17.80;100.00
21588;BME280;10956;48.878;13.316;2022-09-09T08:14:12;94117.50;;;17.86;100.00
21588;BME280;10956;48.878;13.316;2022-09-09T08:16:44;94115.31;;;17.96;100.00
21588;BME280;10956;48.878;13.316;2022-09-09T08:19:11;94112.03;;;18.08;100.00
21588;BME280;10956;48.878;13.316;2022-09-09T08:21:38;94113.28;;;18.19;100.00
21588;BME280;10956;48.878;13.316;2022-09-09T08:24:06;94109.97;;;18.22;100.00
21588;BME280;10956;48.878;13.316;2022-09-09T08:26:37;94101.03;;;18.18;100.00
21588;BME280;10956;48.878;13.316;2022-09-09T08:29:05;94104.34;;;18.06;100.00
21588;BME280;10956;48.878;13.316;2022-09-09T08:31:37;94098.38;;;17.92;100.00
21588;BME280;10956;48.878;13.316;2022-09-09T08:34:04;94125.03;;;17.75;100.00
21588;BME280;10956;48.878;13.316;2022-09-09T08:36:34;94122.63;;;17.65;100.00
21588;BME280;10956;48.878;13.316;2022-09-09T08:39:00;94126.59;;;17.67;100.00
21588;BME280;10956;48.878;13.316;2022-09-09T08:41:38;94115.16;;;17.75;100.00
21588;BME280;10956;48.878;13.316;2022-09-09T08:47:05;94113.56;;;17.74;100.00
21588;BME280;10956;48.878;13.316;2022-09-09T08:52:09;94132.22;;;17.74;100.00
21588;BME280;10956;48.878;13.316;2022-09-09T08:54:38;94136.94;;;17.78;100.00
21588;BME280;10956;48.878;13.316;2022-09-09T08:57:11;94131.00;;;17.89;100.00
21588;BME280;10956;48.878;13.316;2022-09-09T08:59:39;94136.81;;;18.00;100.00
21588;BME280;10956;48.878;13.316;2022-09-09T09:02:25;94139.63;;;18.12;100.00
21588;BME280;10956;48.878;13.316;2022-09-09T09:05:05;94133.03;;;18.27;100.00
21588;BME280;10956;48.878;13.316;2022-09-09T09:08:02;94133.19;;;18.39;100.00
21588;BME280;10956;48.878;13.316;2022-09-09T09:10:45;94135.97;;;18.60;100.00
21588;BME280;10956;48.878;13.316;2022-09-09T09:18:57;94120.50;;;19.00;100.00
21588;BME280;10956;48.878;13.316;2022-09-09T09:21:43;94126.78;;;19.04;100.00
21588;BME280;10956;48.878;13.316;2022-09-09T09:24:36;94123.22;;;18.91;100.00
21588;BME280;10956;48.878;13.316;2022-09-09T09:27:13;94119.59;;;18.96;100.00
21588;BME280;10956;48.878;13.316;2022-09-09T09:29:40;94123.97;;;19.00;100.00
21588;BME280;10956;48.878;13.316;2022-09-09T09:32:14;94133.84;;;19.09;100.00
21588;BME280;10956;48.878;13.316;2022-09-09T09:34:41;94139.31;;;19.12;100.00
21588;BME280;10956;48.878;13.316;2022-09-09T09:37:17;94140.22;;;19.25;100.00
21588;BME280;10956;48.878;13.316;2022-09-09T09:39:45;94139.34;;;19.42;99.57
21588;BME280;10956;48.878;13.316;2022-09-09T09:42:13;94149.03;;;19.63;98.58
21588;BME280;10956;48.878;13.316;2022-09-09T09:44:40;94141.53;;;19.78;97.87
21588;BME280;10956;48.878;13.316;2022-09-09T09:47:13;94145.91;;;19.82;97.38
21588;BME280;10956;48.878;13.316;2022-09-09T09:49:51;94143.94;;;19.71;97.19
21588;BME280;10956;48.878;13.316;2022-09-09T09:52:21;94141.00;;;19.63;98.35
21588;BME280;10956;48.878;13.316;2022-09-09T09:54:48;94140.41;;;19.58;98.82
21588;BME280;10956;48.878;13.316;2022-09-09T09:57:15;94147.63;;;19.57;99.34
21588;BME280;10956;48.878;13.316;2022-09-09T09:59:42;94145.84;;;19.70;98.88
21588;BME280;10956;48.878;13.316;2022-09-09T10:02:18;94149.19;;;19.88;97.98
21588;BME280;10956;48.878;13.316;2022-09-09T10:04:45;94139.13;;;19.85;98.11
21588;BME280;10956;48.878;13.316;2022-09-09T10:07:22;94131.56;;;19.87;97.55
21588;BME280;10956;48.878;13.316;2022-09-09T10:10:01;94151.03;;;19.96;97.26
21588;BME280;10956;48.878;13.316;2022-09-09T10:12:52;94146.41;;;20.05;97.14
21588;BME280;10956;48.878;13.316;2022-09-09T10:15:32;94148.28;;;20.05;96.54
21588;BME280;10956;48.878;13.316;2022-09-09T10:21:00;94151.28;;;20.03;96.43
21588;BME280;10956;48.878;13.316;2022-09-09T10:31:47;94170.19;;;19.98;96.74
21588;BME280;10956;48.878;13.316;2022-09-09T10:37:37;94154.91;;;19.78;96.48
21588;BME280;10956;48.878;13.316;2022-09-09T10:40:22;94172.63;;;19.61;96.74
21588;BME280;10956;48.878;13.316;2022-09-09T10:42:54;94172.53;;;19.41;98.02
21588;BME280;10956;48.878;13.316;2022-09-09T10:46:13;94160.19;;;19.19;99.14
21588;BME280;10956;48.878;13.316;2022-09-09T10:51:18;94172.16;;;19.13;99.06
21588;BME280;10956;48.878;13.316;2022-09-09T10:56:52;94166.31;;;19.19;97.91
21588;BME280;10956;48.878;13.316;2022-09-09T10:59:24;94176.28;;;19.01;98.13
21588;BME280;10956;48.878;13.316;2022-09-09T11:01:58;94175.34;;;18.97;98.47
21588;BME280;10956;48.878;13.316;2022-09-09T11:04:58;94183.69;;;18.96;98.34
21588;BME280;10956;48.878;13.316;2022-09-09T11:07:33;94185.72;;;18.99;98.59
21588;BME280;10956;48.878;13.316;2022-09-09T11:10:06;94182.88;;;18.95;98.84
21588;BME280;10956;48.878;13.316;2022-09-09T11:12:39;94183.81;;;18.99;98.61
21588;BME280;10956;48.878;13.316;2022-09-09T11:15:22;94176.09;;;19.07;98.00
21588;BME280;10956;48.878;13.316;2022-09-09T11:17:56;94175.63;;;19.04;98.16
21588;BME280;10956;48.878;13.316;2022-09-09T11:20:25;94165.88;;;19.09;98.11
21588;BME280;10956;48.878;13.316;2022-09-09T11:25:48;94162.56;;;19.20;96.83
21588;BME280;10956;48.878;13.316;2022-09-09T11:41:50;94149.97;;;19.21;95.29
21588;BME280;10956;48.878;13.316;2022-09-09T11:44:26;94154.38;;;19.17;94.44
21588;BME280;10956;48.878;13.316;2022-09-09T11:46:54;94149.69;;;19.14;94.61
21588;BME280;10956;48.878;13.316;2022-09-09T11:49:49;94155.22;;;19.09;94.39
21588;BME280;10956;48.878;13.316;2022-09-09T11:55:10;94152.66;;;19.21;94.14
21588;BME280;10956;48.878;13.316;2022-09-09T11:57:38;94151.38;;;19.27;94.24
21588;BME280;10956;48.878;13.316;2022-09-09T12:00:05;94153.22;;;19.35;93.82
21588;BME280;10956;48.878;13.316;2022-09-09T12:02:30;94151.97;;;19.32;93.22
21588;BME280;10956;48.878;13.316;2022-09-09T12:05:08;94153.84;;;19.32;92.92
21588;BME280;10956;48.878;13.316;2022-09-09T12:07:46;94153.50;;;19.42;92.85
21588;BME280;10956;48.878;13.316;2022-09-09T12:10:28;94163.25;;;19.38;92.47
21588;BME280;10956;48.878;13.316;2022-09-09T12:12:54;94161.41;;;19.30;93.58
21588;BME280;10956;48.878;13.316;2022-09-09T12:15:22;94160.84;;;19.16;94.54
21588;BME280;10956;48.878;13.316;2022-09-09T12:17:50;94153.16;;;19.06;95.10
21588;BME280;10956;48.878;13.316;2022-09-09T12:31:20;94153.41;;;18.83;96.77
21588;BME280;10956;48.878;13.316;2022-09-09T12:33:48;94162.84;;;18.72;97.93
21588;BME280;10956;48.878;13.316;2022-09-09T12:36:32;94160.63;;;18.57;98.78
21588;BME280;10956;48.878;13.316;2022-09-09T12:39:10;94169.28;;;18.54;99.09
21588;BME280;10956;48.878;13.316;2022-09-09T12:41:40;94161.75;;;18.47;99.71
21588;BME280;10956;48.878;13.316;2022-09-09T12:44:09;94156.88;;;18.40;99.98
21588;BME280;10956;48.878;13.316;2022-09-09T12:46:43;94156.56;;;18.33;100.00
21588;BME280;10956;48.878;13.316;2022-09-09T12:49:32;94148.25;;;18.26;100.00
21588;BME280;10956;48.878;13.316;2022-09-09T12:52:06;94147.94;;;18.28;100.00
21588;BME280;10956;48.878;13.316;2022-09-09T12:54:36;94144.50;;;18.27;100.00
21588;BME280;10956;48.878;13.316;2022-09-09T12:57:03;94144.34;;;18.24;100.00
21588;BME280;10956;48.878;13.316;2022-09-09T12:59:40;94136.19;;;18.20;100.00
21588;BME280;10956;48.878;13.316;2022-09-09T13:04:44;94133.34;;;18.25;100.00
21588;BME280;10956;48.878;13.316;2022-09-09T13:07:12;94125.66;;;18.24;100.00
21588;BME280;10956;48.878;13.316;2022-09-09T13:09:39;94133.81;;;18.19;100.00
21588;BME280;10956;48.878;13.316;2022-09-09T13:12:06;94114.22;;;18.06;100.00
21588;BME280;10956;48.878;13.316;2022-09-09T13:14:38;94115.94;;;17.93;100.00
21588;BME280;10956;48.878;13.316;2022-09-09T13:17:05;94109.19;;;17.87;100.00
21588;BME280;10956;48.878;13.316;2022-09-09T13:19:35;94102.13;;;17.83;100.00
21588;BME280;10956;48.878;13.316;2022-09-09T13:22:12;94105.41;;;17.71;100.00
21588;BME280;10956;48.878;13.316;2022-09-09T13:24:38;94096.28;;;17.63;100.00
21588;BME280;10956;48.878;13.316;2022-09-09T13:27:19;94095.34;;;17.59;100.00
21588;BME280;10956;48.878;13.316;2022-09-09T13:29:53;94097.53;;;17.57;100.00
21588;BME280;10956;48.878;13.316;2022-09-09T13:32:20;94090.97;;;17.63;100.00
21588;BME280;10956;48.878;13.316;2022-09-09T13:34:56;94089.59;;;17.66;100.00
21588;BME280;10956;48.878;13.316;2022-09-09T13:37:36;94088.19;;;17.68;100.00
21588;BME280;10956;48.878;13.316;2022-09-09T13:40:04;94083.63;;;17.69;100.00
21588;BME280;10956;48.878;13.316;2022-09-09T13:42:33;94080.97;;;17.78;100.00
21588;BME280;10956;48.878;13.316;2022-09-09T13:45:03;94084.09;;;17.97;100.00
21588;BME280;10956;48.878;13.316;2022-09-09T13:47:36;94080.94;;;18.29;100.00
21588;BME280;10956;48.878;13.316;2022-09-09T13:50:22;94080.25;;;18.67;97.77
21588;BME280;10956;48.878;13.316;2022-09-09T13:52:49;94091.47;;;18.98;96.78
21588;BME280;10956;48.878;13.316;2022-09-09T13:55:15;94089.69;;;19.11;96.10
21588;BME280;10956;48.878;13.316;2022-09-09T13:58:00;94092.22;;;19.08;96.28
21588;BME280;10956;48.878;13.316;2022-09-09T14:00:29;94085.34;;;18.98;96.90
21588;BME280;10956;48.878;13.316;2022-09-09T14:02:55;94087.75;;;18.82;97.27
21588;BME280;10956;48.878;13.316;2022-09-09T14:05:21;94080.38;;;18.79;96.95
21588;BME280;10956;48.878;13.316;2022-09-09T14:07:48;94071.09;;;18.85;96.60
21588;BME280;10956;48.878;13.316;2022-09-09T14:10:14;94077.38;;;18.89;96.23
21588;BME280;10956;48.878;13.316;2022-09-09T14:12:39;94077.31;;;18.98;95.66
21588;BME280;10956;48.878;13.316;2022-09-09T14:15:06;94080.94;;;19.02;93.60
21588;BME280;10956;48.878;13.316;2022-09-09T14:17:33;94078.56;;;19.00;93.46
21588;BME280;10956;48.878;13.316;2022-09-09T14:20:05;94081.06;;;19.06;92.93
21588;BME280;10956;48.878;13.316;2022-09-09T14:22:34;94076.66;;;19.10;92.48
21588;BME280;10956;48.878;13.316;2022-09-09T14:24:59;94075.91;;;19.30;91.77
21588;BME280;10956;48.878;13.316;2022-09-09T14:27:25;94080.91;;;19.40;90.93
21588;BME280;10956;48.878;13.316;2022-09-09T14:29:53;94080.44;;;19.38;90.03